sensor_id;sensor_type;location;lat;lon;timestamp;pressure;altitude;pressure_sealevel;temperature;humidity
4273;BME280;63887;53.656;9.810;2023-02-10T00:00:12;103230.50;;;2.65;96.04
4273;BME280;63887;53.656;9.810;2023-02-10T00:02:39;103249.59;;;2.68;95.86
4273;BME280;63887;53.656;9.810;2023-02-10T00:05:05;103247.78;;;2.66;96.20
4273;BME280;63887;53.656;9.810;2023-02-10T00:07:32;103250.38;;;2.66;96.05
4273;BME280;63887;53.656;9.810;2023-02-10T00:09:58;103250.34;;;2.64;96.43
4273;BME280;63887;53.656;9.810;2023-02-10T00:12:24;103253.84;;;2.66;96.01
4273;BME280;63887;53.656;9.810;2023-02-10T00:14:52;103250.38;;;2.66;96.14
4273;BME280;63887;53.656;9.810;2023-02-10T00:17:18;103255.53;;;2.64;96.35
4273;BME280;63887;53.656;9.810;2023-02-10T00:19:45;103256.47;;;2.68;96.31
4273;BME280;63887;53.656;9.810;2023-02-10T00:22:11;103253.81;;;2.65;96.14
4273;BME280;63887;53.656;9.810;2023-02-10T00:24:37;103251.31;;;2.68;95.98
4273;BME280;63887;53.656;9.810;2023-02-10T00:27:04;103245.19;;;2.66;96.08
4273;BME280;63887;53.656;9.810;2023-02-10T00:29:30;103240.88;;;2.66;96.20
4273;BME280;63887;53.656;9.810;2023-02-10T00:31:58;103248.63;;;2.65;96.47
4273;BME280;63887;53.656;9.810;2023-02-10T00:34:25;103245.19;;;2.66;96.55
4273;BME280;63887;53.656;9.810;2023-02-10T00:36:53;103239.13;;;2.64;96.27
4273;BME280;63887;53.656;9.810;2023-02-10T00:39:19;103242.63;;;2.67;96.09
4273;BME280;63887;53.656;9.810;2023-02-10T00:41:45;103243.44;;;2.63;96.26
4273;BME280;63887;53.656;9.810;2023-02-10T00:44:12;103249.50;;;2.65;96.21
4273;BME280;63887;53.656;9.810;2023-02-10T00:46:38;103247.00;;;2.68;96.30
4273;BME280;63887;53.656;9.810;2023-02-10T00:49:06;103246.94;;;2.67;96.17
4273;BME280;63887;53.656;9.810;2023-02-10T00:51:33;103247.81;;;2.67;96.15
4273;BME280;63887;53.656;9.810;2023-02-10T00:54:00;103259.00;;;2.65;96.42
4273;BME280;63887;53.656;9.810;2023-02-10T00:56:26;103258.31;;;2.74;96.00
4273;BME280;63887;53.656;9.810;2023-02-10T00:58:53;103259.94;;;2.68;96.40
4273;BME280;63887;53.656;9.810;2023-02-10T01:01:19;103259.94;;;2.68;96.18
4273;BME280;63887;53.656;9.810;2023-02-10T01:03:46;103272.09;;;2.73;95.99
4273;BME280;63887;53.656;9.810;2023-02-10T01:06:13;103266.91;;;2.71;96.09
4273;BME280;63887;53.656;9.810;2023-02-10T01:08:40;103271.28;;;2.75;95.65
4273;BME280;63887;53.656;9.810;2023-02-10T01:11:07;103261.75;;;2.74;95.97
4273;BME280;63887;53.656;9.810;2023-02-10T01:13:34;103263.41;;;2.69;95.78
4273;BME280;63887;53.656;9.810;2023-02-10T01:16:03;103267.81;;;2.75;95.86
4273;BME280;63887;53.656;9.810;2023-02-10T01:18:30;103263.47;;;2.72;96.01
4273;BME280;63887;53.656;9.810;2023-02-10T01:20:56;103262.63;;;2.73;95.74
4273;BME280;63887;53.656;9.810;2023-02-10T01:23:24;103264.31;;;2.71;96.01
4273;BME280;63887;53.656;9.810;2023-02-10T01:25:50;103272.09;;;2.73;95.90
4273;BME280;63887;53.656;9.810;2023-02-10T01:28:17;103265.22;;;2.75;95.52
4273;BME280;63887;53.656;9.810;2023-02-10T01:30:44;103269.56;;;2.76;95.81
4273;BME280;63887;53.656;9.810;2023-02-10T01:33:10;103273.00;;;2.75;95.76
4273;BME280;63887;53.656;9.810;2023-02-10T01:35:37;103269.50;;;2.71;95.89
4273;BME280;63887;53.656;9.810;2023-02-10T01:38:03;103272.06;;;2.69;95.91
4273;BME280;63887;53.656;9.810;2023-02-10T01:40:31;103266.84;;;2.68;96.05
4273;BME280;63887;53.656;9.810;2023-02-10T01:42:57;103264.31;;;2.71;95.90
4273;BME280;63887;53.656;9.810;2023-02-10T01:45:25;103259.16;;;2.73;95.74
4273;BME280;63887;53.656;9.810;2023-02-10T01:47:53;103258.16;;;2.67;95.73
4273;BME280;63887;53.656;9.810;2023-02-10T01:50:21;103257.28;;;2.65;95.77
4273;BME280;63887;53.656;9.810;2023-02-10T01:52:48;103255.56;;;2.66;95.76
4273;BME280;63887;53.656;9.810;2023-02-10T01:55:16;103246.25;;;2.76;95.78
4273;BME280;63887;53.656;9.810;2023-02-10T01:57:44;103246.25;;;2.76;95.51
4273;BME280;63887;53.656;9.810;2023-02-10T02:00:11;103249.63;;;2.72;95.75
4273;BME280;63887;53.656;9.810;2023-02-10T02:02:38;103247.88;;;2.69;95.72
4273;BME280;63887;53.656;9.810;2023-02-10T02:05:05;103238.25;;;2.63;96.07
4273;BME280;63887;53.656;9.810;2023-02-10T02:07:33;103247.81;;;2.67;95.84
4273;BME280;63887;53.656;9.810;2023-02-10T02:10:01;103240.84;;;2.63;96.17
4273;BME280;63887;53.656;9.810;2023-02-10T02:12:30;103243.38;;;2.60;96.18
4273;BME280;63887;53.656;9.810;2023-02-10T02:15:02;103238.25;;;2.63;96.40
4273;BME280;63887;53.656;9.810;2023-02-10T02:17:31;103244.28;;;2.62;96.30
4273;BME280;63887;53.656;9.810;2023-02-10T02:20:10;103245.16;;;2.63;96.57
4273;BME280;63887;53.656;9.810;2023-02-10T02:23:04;103237.31;;;2.58;96.32
4273;BME280;63887;53.656;9.810;2023-02-10T02:25:39;103239.97;;;2.63;96.52
4273;BME280;63887;53.656;9.810;2023-02-10T02:28:10;103247.66;;;2.58;96.39
4273;BME280;63887;53.656;9.810;2023-02-10T02:30:52;103239.84;;;2.55;96.43
4273;BME280;63887;53.656;9.810;2023-02-10T02:33:23;103248.53;;;2.59;96.38
4273;BME280;63887;53.656;9.810;2023-02-10T02:35:54;103249.44;;;2.61;96.40
4273;BME280;63887;53.656;9.810;2023-02-10T02:38:23;103251.09;;;2.57;96.59
4273;BME280;63887;53.656;9.810;2023-02-10T02:40:49;103253.53;;;2.50;96.60
4273;BME280;63887;53.656;9.810;2023-02-10T02:43:16;103256.03;;;2.44;96.34
4273;BME280;63887;53.656;9.810;2023-02-10T02:45:45;103255.16;;;2.43;96.70
4273;BME280;63887;53.656;9.810;2023-02-10T02:48:17;103249.94;;;2.42;96.94
4273;BME280;63887;53.656;9.810;2023-02-10T02:50:50;103248.19;;;2.41;96.88
4273;BME280;63887;53.656;9.810;2023-02-10T02:53:21;103244.66;;;2.37;96.95
4273;BME280;63887;53.656;9.810;2023-02-10T02:55:52;103244.66;;;2.37;97.15
4273;BME280;63887;53.656;9.810;2023-02-10T02:58:27;103249.78;;;2.34;97.34
4273;BME280;63887;53.656;9.810;2023-02-10T03:00:55;103249.72;;;2.31;97.25
4273;BME280;63887;53.656;9.810;2023-02-10T03:03:31;103249.81;;;2.35;97.45
4273;BME280;63887;53.656;9.810;2023-02-10T03:05:59;103250.00;;;2.45;97.35
4273;BME280;63887;53.656;9.810;2023-02-10T03:08:26;103249.81;;;2.35;97.50
4273;BME280;63887;53.656;9.810;2023-02-10T03:10:54;103243.81;;;2.38;97.39
4273;BME280;63887;53.656;9.810;2023-02-10T03:13:20;103250.63;;;2.33;97.39
4273;BME280;63887;53.656;9.810;2023-02-10T03:15:46;103244.56;;;2.31;97.66
4273;BME280;63887;53.656;9.810;2023-02-10T03:18:14;103245.50;;;2.36;97.06
4273;BME280;63887;53.656;9.810;2023-02-10T03:20:40;103241.13;;;2.32;97.39
4273;BME280;63887;53.656;9.810;2023-02-10T03:23:08;103240.25;;;2.31;97.56
4273;BME280;63887;53.656;9.810;2023-02-10T03:25:34;103243.72;;;2.32;97.46
4273;BME280;63887;53.656;9.810;2023-02-10T03:28:00;103236.75;;;2.29;97.16
4273;BME280;63887;53.656;9.810;2023-02-10T03:30:27;103230.72;;;2.30;97.79
4273;BME280;63887;53.656;9.810;2023-02-10T03:32:53;103241.94;;;2.29;97.41
4273;BME280;63887;53.656;9.810;2023-02-10T03:35:20;103246.25;;;2.29;97.79
4273;BME280;63887;53.656;9.810;2023-02-10T03:37:46;103243.59;;;2.26;97.70
4273;BME280;63887;53.656;9.810;2023-02-10T03:40:14;103239.31;;;2.28;97.65
4273;BME280;63887;53.656;9.810;2023-02-10T03:42:40;103244.50;;;2.28;97.62
4273;BME280;63887;53.656;9.810;2023-02-10T03:45:07;103240.13;;;2.24;97.72
4273;BME280;63887;53.656;9.810;2023-02-10T03:47:33;103247.91;;;2.25;97.89
4273;BME280;63887;53.656;9.810;2023-02-10T03:50:00;103243.50;;;2.23;97.87
4273;BME280;63887;53.656;9.810;2023-02-10T03:52:26;103242.75;;;2.27;97.63
4273;BME280;63887;53.656;9.810;2023-02-10T03:54:52;103252.06;;;2.19;97.99
4273;BME280;63887;53.656;9.810;2023-02-10T03:57:20;103253.75;;;2.15;98.08
4273;BME280;63887;53.656;9.810;2023-02-10T03:59:46;103260.59;;;2.13;97.98
4273;BME280;63887;53.656;9.810;2023-02-10T04:02:13;103255.41;;;2.12;98.11
4273;BME280;63887;53.656;9.810;2023-02-10T04:04:39;103256.16;;;2.07;98.51
4273;BME280;63887;53.656;9.810;2023-02-10T04:07:05;103266.44;;;2.03;98.19
4273;BME280;63887;53.656;9.810;2023-02-10T04:09:32;103259.56;;;2.05;98.65
4273;BME280;63887;53.656;9.810;2023-02-10T04:11:58;103270.69;;;2.01;98.61
4273;BME280;63887;53.656;9.810;2023-02-10T04:14:26;103273.31;;;2.02;98.50
4273;BME280;63887;53.656;9.810;2023-02-10T04:16:52;103272.34;;;1.97;98.50
4273;BME280;63887;53.656;9.810;2023-02-10T04:19:18;103274.03;;;1.95;98.74
4273;BME280;63887;53.656;9.810;2023-02-10T04:21:45;103282.00;;;2.06;98.42
4273;BME280;63887;53.656;9.810;2023-02-10T04:24:11;103278.41;;;1.98;98.60
4273;BME280;63887;53.656;9.810;2023-02-10T04:26:37;103283.56;;;1.96;98.68
4273;BME280;63887;53.656;9.810;2023-02-10T04:29:04;103278.28;;;1.93;98.78
4273;BME280;63887;53.656;9.810;2023-02-10T04:31:31;103273.19;;;1.96;98.92
4273;BME280;63887;53.656;9.810;2023-02-10T04:33:58;103270.53;;;1.93;98.93
4273;BME280;63887;53.656;9.810;2023-02-10T04:36:24;103279.06;;;1.89;98.78
4273;BME280;63887;53.656;9.810;2023-02-10T04:38:50;103278.97;;;1.83;99.05
4273;BME280;63887;53.656;9.810;2023-02-10T04:41:17;103288.47;;;1.84;99.59
4273;BME280;63887;53.656;9.810;2023-02-10T04:43:43;103284.09;;;1.82;99.23
4273;BME280;63887;53.656;9.810;2023-02-10T04:46:09;103283.22;;;1.81;99.46
4273;BME280;63887;53.656;9.810;2023-02-10T04:48:37;103281.38;;;1.77;99.24
4273;BME280;63887;53.656;9.810;2023-02-10T04:51:07;103280.47;;;1.75;99.63
4273;BME280;63887;53.656;9.810;2023-02-10T04:53:33;103282.25;;;1.77;99.41
4273;BME280;63887;53.656;9.810;2023-02-10T04:55:59;103278.78;;;1.75;99.94
4273;BME280;63887;53.656;9.810;2023-02-10T04:58:26;103285.81;;;1.81;99.28
4273;BME280;63887;53.656;9.810;2023-02-10T05:00:53;103289.91;;;1.71;99.82
4273;BME280;63887;53.656;9.810;2023-02-10T05:03:20;103288.22;;;1.73;99.38
4273;BME280;63887;53.656;9.810;2023-02-10T05:05:48;103288.19;;;1.72;99.91
4273;BME280;63887;53.656;9.810;2023-02-10T05:08:16;103302.06;;;1.75;99.57
4273;BME280;63887;53.656;9.810;2023-02-10T05:10:45;103296.84;;;1.74;99.94
4273;BME280;63887;53.656;9.810;2023-02-10T05:13:12;103307.06;;;1.68;99.61
4273;BME280;63887;53.656;9.810;2023-02-10T05:15:38;103311.34;;;1.66;99.85
4273;BME280;63887;53.656;9.810;2023-02-10T05:18:04;103304.63;;;1.74;99.68
4273;BME280;63887;53.656;9.810;2023-02-10T05:20:31;103315.81;;;1.73;100.00
4273;BME280;63887;53.656;9.810;2023-02-10T05:22:58;103325.22;;;1.69;99.43
4273;BME280;63887;53.656;9.810;2023-02-10T05:25:25;103328.72;;;1.71;100.00
4273;BME280;63887;53.656;9.810;2023-02-10T05:27:52;103325.31;;;1.74;100.00
4273;BME280;63887;53.656;9.810;2023-02-10T05:30:18;103331.31;;;1.73;99.84
4273;BME280;63887;53.656;9.810;2023-02-10T05:32:45;103335.72;;;1.77;99.62
4273;BME280;63887;53.656;9.810;2023-02-10T05:35:11;103334.81;;;1.75;99.85
4273;BME280;63887;53.656;9.810;2023-02-10T05:37:38;103331.50;;;1.79;100.00
4273;BME280;63887;53.656;9.810;2023-02-10T05:40:06;103337.56;;;1.81;99.65
4273;BME280;63887;53.656;9.810;2023-02-10T05:42:32;103333.47;;;1.92;99.88
4273;BME280;63887;53.656;9.810;2023-02-10T05:44:59;103337.72;;;1.89;99.78
4273;BME280;63887;53.656;9.810;2023-02-10T05:47:25;103338.56;;;1.88;99.25
4273;BME280;63887;53.656;9.810;2023-02-10T05:49:51;103330.91;;;1.92;99.85
4273;BME280;63887;53.656;9.810;2023-02-10T05:52:17;103331.72;;;1.91;99.29
4273;BME280;63887;53.656;9.810;2023-02-10T05:54:44;103325.78;;;1.94;99.26
4273;BME280;63887;53.656;9.810;2023-02-10T05:57:11;103320.59;;;1.94;99.20
4273;BME280;63887;53.656;9.810;2023-02-10T05:59:38;103323.97;;;1.91;99.43
4273;BME280;63887;53.656;9.810;2023-02-10T06:02:04;103332.72;;;1.96;99.33
4273;BME280;63887;53.656;9.810;2023-02-10T06:04:31;103331.06;;;2.00;99.63
4273;BME280;63887;53.656;9.810;2023-02-10T06:06:57;103334.47;;;1.97;99.49
4273;BME280;63887;53.656;9.810;2023-02-10T06:09:23;103334.41;;;1.94;99.34
4273;BME280;63887;53.656;9.810;2023-02-10T06:11:51;103341.31;;;1.94;98.89
4273;BME280;63887;53.656;9.810;2023-02-10T06:14:19;103345.56;;;1.93;99.42
4273;BME280;63887;53.656;9.810;2023-02-10T06:16:46;103343.06;;;1.95;99.28
4273;BME280;63887;53.656;9.810;2023-02-10T06:19:12;103349.16;;;1.98;98.96
4273;BME280;63887;53.656;9.810;2023-02-10T06:21:38;103355.31;;;2.03;99.06
4273;BME280;63887;53.656;9.810;2023-02-10T06:24:05;103359.00;;;2.13;98.83
4273;BME280;63887;53.656;9.810;2023-02-10T06:26:31;103354.72;;;2.15;98.77
4273;BME280;63887;53.656;9.810;2023-02-10T06:28:57;103354.66;;;2.12;98.88
4273;BME280;63887;53.656;9.810;2023-02-10T06:31:25;103360.66;;;2.11;98.75
4273;BME280;63887;53.656;9.810;2023-02-10T06:33:51;103361.41;;;2.07;98.59
4273;BME280;63887;53.656;9.810;2023-02-10T06:36:18;103366.69;;;2.10;98.88
4273;BME280;63887;53.656;9.810;2023-02-10T06:38:44;103366.81;;;2.16;98.77
4273;BME280;63887;53.656;9.810;2023-02-10T06:41:12;103359.13;;;2.21;98.71
4273;BME280;63887;53.656;9.810;2023-02-10T06:43:39;103360.19;;;2.29;98.45
4273;BME280;63887;53.656;9.810;2023-02-10T06:46:05;103363.56;;;2.25;98.40
4273;BME280;63887;53.656;9.810;2023-02-10T06:48:33;103373.09;;;2.27;98.15
4273;BME280;63887;53.656;9.810;2023-02-10T06:50:59;103381.91;;;2.35;98.11
4273;BME280;63887;53.656;9.810;2023-02-10T06:53:26;103384.50;;;2.35;98.07
4273;BME280;63887;53.656;9.810;2023-02-10T06:55:55;103390.56;;;2.37;97.94
4273;BME280;63887;53.656;9.810;2023-02-10T06:58:21;103394.22;;;2.46;97.74
4273;BME280;63887;53.656;9.810;2023-02-10T07:00:47;103389.06;;;2.47;97.55
4273;BME280;63887;53.656;9.810;2023-02-10T07:03:14;103386.53;;;2.50;97.48
4273;BME280;63887;53.656;9.810;2023-02-10T07:05:42;103389.91;;;2.46;97.81
4273;BME280;63887;53.656;9.810;2023-02-10T07:08:10;103383.81;;;2.44;97.96
4273;BME280;63887;53.656;9.810;2023-02-10T07:10:36;103389.00;;;2.44;97.64
4273;BME280;63887;53.656;9.810;2023-02-10T07:13:02;103383.78;;;2.43;97.73
4273;BME280;63887;53.656;9.810;2023-02-10T07:15:29;103381.16;;;2.39;97.63
4273;BME280;63887;53.656;9.810;2023-02-10T07:17:55;103390.63;;;2.39;97.51
4273;BME280;63887;53.656;9.810;2023-02-10T07:20:22;103388.78;;;2.35;97.95
4273;BME280;63887;53.656;9.810;2023-02-10T07:22:50;103399.22;;;2.38;97.92
4273;BME280;63887;53.656;9.810;2023-02-10T07:25:16;103397.72;;;2.49;97.88
4273;BME280;63887;53.656;9.810;2023-02-10T07:27:43;103400.53;;;2.58;97.45
4273;BME280;63887;53.656;9.810;2023-02-10T07:30:10;103402.19;;;2.55;96.87
4273;BME280;63887;53.656;9.810;2023-02-10T07:32:37;103402.88;;;2.48;97.09
4273;BME280;63887;53.656;9.810;2023-02-10T07:35:03;103414.00;;;2.42;96.94
4273;BME280;63887;53.656;9.810;2023-02-10T07:37:30;103407.19;;;2.47;97.53
4273;BME280;63887;53.656;9.810;2023-02-10T07:39:58;103417.78;;;2.58;96.73
4273;BME280;63887;53.656;9.810;2023-02-10T07:42:24;103408.34;;;2.61;96.89
4273;BME280;63887;53.656;9.810;2023-02-10T07:45:11;103415.22;;;2.59;96.63
4273;BME280;63887;53.656;9.810;2023-02-10T07:47:37;103409.25;;;2.63;96.39
4273;BME280;63887;53.656;9.810;2023-02-10T07:50:04;103406.59;;;2.60;96.90
4273;BME280;63887;53.656;9.810;2023-02-10T07:52:30;103410.84;;;2.55;96.99
4273;BME280;63887;53.656;9.810;2023-02-10T07:54:58;103415.47;;;2.70;96.60
4273;BME280;63887;53.656;9.810;2023-02-10T07:57:27;103407.72;;;2.72;96.40
4273;BME280;63887;53.656;9.810;2023-02-10T07:59:54;103413.75;;;2.71;96.13
4273;BME280;63887;53.656;9.810;2023-02-10T08:02:20;103411.16;;;2.71;96.43
4273;BME280;63887;53.656;9.810;2023-02-10T08:04:46;103408.63;;;2.75;96.05
4273;BME280;63887;53.656;9.810;2023-02-10T08:07:13;103405.47;;;2.90;95.79
4273;BME280;63887;53.656;9.810;2023-02-10T08:09:39;103414.06;;;2.87;95.85
4273;BME280;63887;53.656;9.810;2023-02-10T08:12:07;103411.63;;;2.96;95.93
4273;BME280;63887;53.656;9.810;2023-02-10T08:14:33;103420.13;;;2.88;95.89
4273;BME280;63887;53.656;9.810;2023-02-10T08:17:00;103409.13;;;2.99;95.62
4273;BME280;63887;53.656;9.810;2023-02-10T08:19:27;103411.72;;;2.99;95.41
4273;BME280;63887;53.656;9.810;2023-02-10T08:21:53;103422.00;;;2.96;95.40
4273;BME280;63887;53.656;9.810;2023-02-10T08:24:20;103415.38;;;3.12;94.99
4273;BME280;63887;53.656;9.810;2023-02-10T08:26:46;103420.66;;;3.15;95.11
4273;BME280;63887;53.656;9.810;2023-02-10T08:29:13;103432.66;;;3.12;95.26
4273;BME280;63887;53.656;9.810;2023-02-10T08:31:40;103419.75;;;3.13;95.06
4273;BME280;63887;53.656;9.810;2023-02-10T08:34:11;103423.41;;;3.24;94.55
4273;BME280;63887;53.656;9.810;2023-02-10T08:36:38;103401.94;;;3.32;94.60
4273;BME280;63887;53.656;9.810;2023-02-10T08:39:05;103413.41;;;3.44;94.41
4273;BME280;63887;53.656;9.810;2023-02-10T08:41:31;103415.31;;;3.56;93.83
4273;BME280;63887;53.656;9.810;2023-02-10T08:43:57;103417.75;;;3.45;94.08
4273;BME280;63887;53.656;9.810;2023-02-10T08:46:25;103418.72;;;3.52;94.03
4273;BME280;63887;53.656;9.810;2023-02-10T08:48:52;103426.00;;;3.73;93.05
4273;BME280;63887;53.656;9.810;2023-02-10T08:51:18;103417.06;;;3.57;93.65
4273;BME280;63887;53.656;9.810;2023-02-10T08:53:44;103425.06;;;3.69;93.01
4273;BME280;63887;53.656;9.810;2023-02-10T08:56:13;103435.56;;;3.75;92.88
4273;BME280;63887;53.656;9.810;2023-02-10T08:58:40;103428.63;;;3.76;92.54
4273;BME280;63887;53.656;9.810;2023-02-10T09:01:09;103436.50;;;3.80;92.79
4273;BME280;63887;53.656;9.810;2023-02-10T09:03:37;103432.06;;;3.73;92.21
4273;BME280;63887;53.656;9.810;2023-02-10T09:06:03;103425.16;;;3.74;92.91
4273;BME280;63887;53.656;9.810;2023-02-10T09:08:30;103424.19;;;3.70;92.39
4273;BME280;63887;53.656;9.810;2023-02-10T09:10:56;103425.78;;;3.61;93.18
4273;BME280;63887;53.656;9.810;2023-02-10T09:13:23;103430.25;;;3.71;92.67
4273;BME280;63887;53.656;9.810;2023-02-10T09:15:50;103435.28;;;3.58;92.82
4273;BME280;63887;53.656;9.810;2023-02-10T09:18:16;103437.88;;;3.58;93.12
4273;BME280;63887;53.656;9.810;2023-02-10T09:20:44;103445.72;;;3.63;92.99
4273;BME280;63887;53.656;9.810;2023-02-10T09:23:10;103441.44;;;3.65;93.49
4273;BME280;63887;53.656;9.810;2023-02-10T09:25:37;103446.31;;;3.47;93.75
4273;BME280;63887;53.656;9.810;2023-02-10T09:28:03;103441.25;;;3.56;93.83
4273;BME280;63887;53.656;9.810;2023-02-10T09:30:30;103448.16;;;3.54;93.90
4273;BME280;63887;53.656;9.810;2023-02-10T09:32:56;103448.28;;;3.60;93.58
4273;BME280;63887;53.656;9.810;2023-02-10T09:35:22;103440.63;;;3.69;93.22
4273;BME280;63887;53.656;9.810;2023-02-10T09:37:50;103447.72;;;3.79;92.60
4273;BME280;63887;53.656;9.810;2023-02-10T09:40:17;103449.16;;;3.62;93.18
4273;BME280;63887;53.656;9.810;2023-02-10T09:42:49;103448.63;;;3.81;92.88
4273;BME280;63887;53.656;9.810;2023-02-10T09:45:25;103445.38;;;3.95;92.48
4273;BME280;63887;53.656;9.810;2023-02-10T09:47:52;103444.44;;;3.89;92.35
4273;BME280;63887;53.656;9.810;2023-02-10T09:50:26;103445.41;;;3.98;92.39
4273;BME280;63887;53.656;9.810;2023-02-10T09:53:03;103453.16;;;3.93;91.37
4273;BME280;63887;53.656;9.810;2023-02-10T09:55:32;103441.03;;;3.94;92.38
4273;BME280;63887;53.656;9.810;2023-02-10T09:58:01;103440.41;;;4.10;91.61
4273;BME280;63887;53.656;9.810;2023-02-10T10:00:31;103443.16;;;4.19;91.60
4273;BME280;63887;53.656;9.810;2023-02-10T10:02:59;103450.97;;;4.19;91.46
4273;BME280;63887;53.656;9.810;2023-02-10T10:05:32;103448.50;;;4.30;91.40
4273;BME280;63887;53.656;9.810;2023-02-10T10:07:59;103439.03;;;4.33;91.17
4273;BME280;63887;53.656;9.810;2023-02-10T10:10:29;103444.16;;;4.30;90.75
4273;BME280;63887;53.656;9.810;2023-02-10T10:12:58;103452.13;;;4.42;90.23
4273;BME280;63887;53.656;9.810;2023-02-10T10:15:25;103448.44;;;4.25;90.25
4273;BME280;63887;53.656;9.810;2023-02-10T10:17:58;103451.19;;;4.36;91.03
4273;BME280;63887;53.656;9.810;2023-02-10T10:20:34;103455.81;;;4.57;89.29
4273;BME280;63887;53.656;9.810;2023-02-10T10:23:05;103458.16;;;4.38;90.68
4273;BME280;63887;53.656;9.810;2023-02-10T10:25:49;103465.88;;;4.32;91.06
4273;BME280;63887;53.656;9.810;2023-02-10T10:28:23;103459.91;;;4.39;91.04
4273;BME280;63887;53.656;9.810;2023-02-10T10:30:53;103465.03;;;4.35;90.70
4273;BME280;63887;53.656;9.810;2023-02-10T10:33:22;103456.25;;;4.27;91.26
4273;BME280;63887;53.656;9.810;2023-02-10T10:35:49;103457.31;;;4.39;90.62
4273;BME280;63887;53.656;9.810;2023-02-10T10:38:19;103452.34;;;4.56;90.27
4273;BME280;63887;53.656;9.810;2023-02-10T10:40:46;103449.03;;;4.69;89.30
4273;BME280;63887;53.656;9.810;2023-02-10T10:43:17;103439.47;;;4.67;89.23
4273;BME280;63887;53.656;9.810;2023-02-10T10:45:44;103444.53;;;4.58;89.73
4273;BME280;63887;53.656;9.810;2023-02-10T10:48:14;103443.03;;;4.75;89.21
4273;BME280;63887;53.656;9.810;2023-02-10T10:50:42;103442.28;;;4.84;89.37
4273;BME280;63887;53.656;9.810;2023-02-10T10:53:12;103443.16;;;4.84;88.18
4273;BME280;63887;53.656;9.810;2023-02-10T10:55:41;103434.44;;;4.79;88.79
4273;BME280;63887;53.656;9.810;2023-02-10T10:58:20;103434.25;;;4.65;89.60
4273;BME280;63887;53.656;9.810;2023-02-10T11:00:51;103429.81;;;4.58;89.99
4273;BME280;63887;53.656;9.810;2023-02-10T11:03:18;103421.34;;;4.74;90.11
4273;BME280;63887;53.656;9.810;2023-02-10T11:05:44;103421.53;;;4.90;88.80
4273;BME280;63887;53.656;9.810;2023-02-10T11:08:24;103411.25;;;4.97;88.67
4273;BME280;63887;53.656;9.810;2023-02-10T11:10:53;103422.69;;;5.13;88.40
4273;BME280;63887;53.656;9.810;2023-02-10T11:13:21;103420.78;;;4.98;88.69
4273;BME280;63887;53.656;9.810;2023-02-10T11:15:48;103417.31;;;4.99;88.84
4273;BME280;63887;53.656;9.810;2023-02-10T11:20:56;103423.56;;;5.17;87.86
4273;BME280;63887;53.656;9.810;2023-02-10T11:23:23;103415.03;;;5.30;88.45
4273;BME280;63887;53.656;9.810;2023-02-10T11:25:55;103423.03;;;5.50;87.29
4273;BME280;63887;53.656;9.810;2023-02-10T11:28:24;103415.19;;;5.48;87.29
4273;BME280;63887;53.656;9.810;2023-02-10T11:30:54;103412.59;;;5.50;87.24
4273;BME280;63887;53.656;9.810;2023-02-10T11:33:22;103413.47;;;5.47;87.38
4273;BME280;63887;53.656;9.810;2023-02-10T11:35:49;103412.66;;;5.54;86.52
4273;BME280;63887;53.656;9.810;2023-02-10T11:38:19;103399.78;;;5.73;85.78
4273;BME280;63887;53.656;9.810;2023-02-10T11:40:50;103402.38;;;5.71;86.14
4273;BME280;63887;53.656;9.810;2023-02-10T11:43:17;103401.69;;;5.90;86.02
4273;BME280;63887;53.656;9.810;2023-02-10T11:45:50;103389.59;;;5.97;84.97
4273;BME280;63887;53.656;9.810;2023-02-10T11:48:18;103373.97;;;6.00;85.29
4273;BME280;63887;53.656;9.810;2023-02-10T11:50:45;103379.94;;;5.88;85.46
4273;BME280;63887;53.656;9.810;2023-02-10T11:53:12;103366.19;;;6.06;84.78
4273;BME280;63887;53.656;9.810;2023-02-10T11:55:50;103358.38;;;6.06;84.03
4273;BME280;63887;53.656;9.810;2023-02-10T11:58:27;103356.63;;;6.02;84.59
4273;BME280;63887;53.656;9.810;2023-02-10T12:01:14;103350.53;;;6.05;84.21
4273;BME280;63887;53.656;9.810;2023-02-10T12:03:48;103347.19;;;6.27;84.09
4273;BME280;63887;53.656;9.810;2023-02-10T12:06:21;103342.84;;;6.26;83.78
4273;BME280;63887;53.656;9.810;2023-02-10T12:08:51;103339.44;;;6.41;82.95
4273;BME280;63887;53.656;9.810;2023-02-10T12:11:24;103342.88;;;6.38;83.40
4273;BME280;63887;53.656;9.810;2023-02-10T12:13:56;103344.66;;;6.41;83.08
4273;BME280;63887;53.656;9.810;2023-02-10T12:16:28;103335.97;;;6.40;82.61
4273;BME280;63887;53.656;9.810;2023-02-10T12:19:01;103337.75;;;6.55;82.13
4273;BME280;63887;53.656;9.810;2023-02-10T12:21:36;103327.34;;;6.60;81.61
4273;BME280;63887;53.656;9.810;2023-02-10T12:24:09;103327.38;;;6.72;81.75
4273;BME280;63887;53.656;9.810;2023-02-10T12:26:42;103318.63;;;6.61;81.58
4273;BME280;63887;53.656;9.810;2023-02-10T12:29:13;103326.47;;;6.62;81.19
4273;BME280;63887;53.656;9.810;2023-02-10T12:31:44;103323.81;;;6.50;80.98
4273;BME280;63887;53.656;9.810;2023-02-10T12:34:26;103309.91;;;6.52;80.01
4273;BME280;63887;53.656;9.810;2023-02-10T12:37:00;103308.16;;;6.44;80.76
4273;BME280;63887;53.656;9.810;2023-02-10T12:39:31;103303.78;;;6.34;80.91
4273;BME280;63887;53.656;9.810;2023-02-10T12:42:03;103316.81;;;6.35;81.48
4273;BME280;63887;53.656;9.810;2023-02-10T12:44:39;103304.63;;;6.26;80.91
4273;BME280;63887;53.656;9.810;2023-02-10T12:47:13;103296.81;;;6.25;81.11
4273;BME280;63887;53.656;9.810;2023-02-10T12:49:45;103300.22;;;6.10;80.70
4273;BME280;63887;53.656;9.810;2023-02-10T12:52:18;103294.09;;;6.08;80.42
4273;BME280;63887;53.656;9.810;2023-02-10T12:54:47;103296.75;;;6.11;81.46
4273;BME280;63887;53.656;9.810;2023-02-10T12:57:16;103294.16;;;6.16;81.37
4273;BME280;63887;53.656;9.810;2023-02-10T12:59:48;103291.56;;;6.20;80.88
4273;BME280;63887;53.656;9.810;2023-02-10T13:02:17;103292.44;;;6.21;80.78
4273;BME280;63887;53.656;9.810;2023-02-10T13:04:46;103289.00;;;6.30;81.08
4273;BME280;63887;53.656;9.810;2023-02-10T13:07:17;103291.66;;;6.40;80.88
4273;BME280;63887;53.656;9.810;2023-02-10T13:09:47;103290.78;;;6.53;80.43
4273;BME280;63887;53.656;9.810;2023-02-10T13:12:18;103296.03;;;6.66;79.99
4273;BME280;63887;53.656;9.810;2023-02-10T13:14:48;103292.59;;;6.74;78.55
4273;BME280;63887;53.656;9.810;2023-02-10T13:17:15;103280.44;;;6.85;78.62